sensor_id;sensor_type;location;lat;lon;timestamp;P1;durP1;ratioP1;P2;durP2;ratioP2
4597;SDS011;62772;48.646;8.906;2024-02-26T00:03:13;4.17;;;2.93;;
4597;SDS011;62772;48.646;8.906;2024-02-26T00:08:13;3.80;;;2.90;;
4597;SDS011;62772;48.646;8.906;2024-02-26T00:13:13;5.30;;;3.27;;
4597;SDS011;62772;48.646;8.906;2024-02-26T00:18:14;5.40;;;2.93;;
4597;SDS011;62772;48.646;8.906;2024-02-26T00:23:15;5.30;;;2.90;;
4597;SDS011;62772;48.646;8.906;2024-02-26T00:28:16;7.90;;;3.23;;
4597;SDS011;62772;48.646;8.906;2024-02-26T00:33:16;4.60;;;3.13;;
4597;SDS011;62772;48.646;8.906;2024-02-26T00:38:20;5.10;;;3.30;;
4597;SDS011;62772;48.646;8.906;2024-02-26T00:43:20;15.33;;;6.57;;
4597;SDS011;62772;48.646;8.906;2024-02-26T00:48:21;7.20;;;4.40;;
4597;SDS011;62772;48.646;8.906;2024-02-26T00:53:21;6.67;;;3.87;;
4597;SDS011;62772;48.646;8.906;2024-02-26T00:58:22;9.90;;;4.70;;
4597;SDS011;62772;48.646;8.906;2024-02-26T01:03:22;8.00;;;4.60;;
4597;SDS011;62772;48.646;8.906;2024-02-26T01:08:23;8.20;;;4.87;;
4597;SDS011;62772;48.646;8.906;2024-02-26T01:13:23;8.50;;;4.73;;
4597;SDS011;62772;48.646;8.906;2024-02-26T01:18:24;6.90;;;3.80;;
4597;SDS011;62772;48.646;8.906;2024-02-26T01:23:24;7.17;;;4.07;;
4597;SDS011;62772;48.646;8.906;2024-02-26T01:28:25;5.97;;;3.53;;
4597;SDS011;62772;48.646;8.906;2024-02-26T01:33:26;3.93;;;3.23;;
4597;SDS011;62772;48.646;8.906;2024-02-26T01:38:26;12.10;;;4.50;;
4597;SDS011;62772;48.646;8.906;2024-02-26T01:43:27;6.80;;;4.40;;
4597;SDS011;62772;48.646;8.906;2024-02-26T01:48:28;14.40;;;3.90;;
4597;SDS011;62772;48.646;8.906;2024-02-26T01:53:28;5.70;;;3.57;;
4597;SDS011;62772;48.646;8.906;2024-02-26T01:58:30;4.57;;;3.00;;
4597;SDS011;62772;48.646;8.906;2024-02-26T02:03:31;5.00;;;2.70;;
4597;SDS011;62772;48.646;8.906;2024-02-26T02:08:31;5.67;;;3.23;;
4597;SDS011;62772;48.646;8.906;2024-02-26T02:13:32;4.50;;;3.30;;
4597;SDS011;62772;48.646;8.906;2024-02-26T02:18:33;5.90;;;3.30;;
4597;SDS011;62772;48.646;8.906;2024-02-26T02:23:33;6.47;;;3.70;;
4597;SDS011;62772;48.646;8.906;2024-02-26T02:28:34;9.20;;;3.70;;
4597;SDS011;62772;48.646;8.906;2024-02-26T02:33:34;3.90;;;3.10;;
4597;SDS011;62772;48.646;8.906;2024-02-26T02:38:36;4.83;;;3.10;;
4597;SDS011;62772;48.646;8.906;2024-02-26T02:43:37;3.93;;;2.77;;
4597;SDS011;62772;48.646;8.906;2024-02-26T02:48:38;5.00;;;3.33;;
4597;SDS011;62772;48.646;8.906;2024-02-26T02:53:38;4.70;;;3.20;;
4597;SDS011;62772;48.646;8.906;2024-02-26T02:58:38;4.07;;;2.73;;
4597;SDS011;62772;48.646;8.906;2024-02-26T03:03:39;4.43;;;2.80;;
4597;SDS011;62772;48.646;8.906;2024-02-26T03:08:39;4.83;;;3.43;;
4597;SDS011;62772;48.646;8.906;2024-02-26T03:13:41;5.20;;;3.43;;
4597;SDS011;62772;48.646;8.906;2024-02-26T03:18:42;6.70;;;3.90;;
4597;SDS011;62772;48.646;8.906;2024-02-26T03:23:43;5.00;;;3.40;;
4597;SDS011;62772;48.646;8.906;2024-02-26T03:28:43;5.33;;;3.27;;
4597;SDS011;62772;48.646;8.906;2024-02-26T03:33:43;4.13;;;3.37;;
4597;SDS011;62772;48.646;8.906;2024-02-26T03:38:44;4.73;;;3.00;;
4597;SDS011;62772;48.646;8.906;2024-02-26T03:43:45;4.83;;;3.47;;
4597;SDS011;62772;48.646;8.906;2024-02-26T03:48:45;4.33;;;3.40;;
4597;SDS011;62772;48.646;8.906;2024-02-26T03:53:46;4.57;;;3.20;;
4597;SDS011;62772;48.646;8.906;2024-02-26T03:58:46;4.43;;;3.00;;
4597;SDS011;62772;48.646;8.906;2024-02-26T04:03:47;4.80;;;3.00;;
4597;SDS011;62772;48.646;8.906;2024-02-26T04:08:47;4.40;;;2.90;;
4597;SDS011;62772;48.646;8.906;2024-02-26T04:13:48;5.43;;;3.10;;
4597;SDS011;62772;48.646;8.906;2024-02-26T04:18:52;4.30;;;2.93;;
4597;SDS011;62772;48.646;8.906;2024-02-26T04:23:53;5.97;;;3.20;;
4597;SDS011;62772;48.646;8.906;2024-02-26T04:28:56;5.97;;;3.50;;
4597;SDS011;62772;48.646;8.906;2024-02-26T04:33:57;6.67;;;3.97;;
4597;SDS011;62772;48.646;8.906;2024-02-26T04:38:57;7.13;;;3.70;;
4597;SDS011;62772;48.646;8.906;2024-02-26T04:43:58;5.70;;;3.13;;
4597;SDS011;62772;48.646;8.906;2024-02-26T04:48:59;4.90;;;3.53;;
4597;SDS011;62772;48.646;8.906;2024-02-26T04:53:59;4.80;;;3.47;;
4597;SDS011;62772;48.646;8.906;2024-02-26T04:58:59;4.97;;;3.57;;
4597;SDS011;62772;48.646;8.906;2024-02-26T05:04:00;7.13;;;4.77;;
4597;SDS011;62772;48.646;8.906;2024-02-26T05:09:01;5.87;;;4.30;;
4597;SDS011;62772;48.646;8.906;2024-02-26T05:14:01;5.23;;;3.60;;
4597;SDS011;62772;48.646;8.906;2024-02-26T05:19:02;4.93;;;3.17;;
4597;SDS011;62772;48.646;8.906;2024-02-26T05:24:03;6.90;;;3.53;;
4597;SDS011;62772;48.646;8.906;2024-02-26T05:29:04;4.13;;;3.00;;
4597;SDS011;62772;48.646;8.906;2024-02-26T05:34:04;5.83;;;3.50;;
4597;SDS011;62772;48.646;8.906;2024-02-26T05:39:05;5.57;;;3.43;;
4597;SDS011;62772;48.646;8.906;2024-02-26T05:44:05;6.33;;;3.90;;
4597;SDS011;62772;48.646;8.906;2024-02-26T05:49:06;6.10;;;3.50;;
4597;SDS011;62772;48.646;8.906;2024-02-26T05:54:07;5.13;;;3.57;;
4597;SDS011;62772;48.646;8.906;2024-02-26T05:59:08;4.63;;;3.63;;
4597;SDS011;62772;48.646;8.906;2024-02-26T06:04:08;5.60;;;3.90;;
4597;SDS011;62772;48.646;8.906;2024-02-26T06:09:09;7.27;;;4.40;;
4597;SDS011;62772;48.646;8.906;2024-02-26T06:14:11;5.87;;;4.30;;
4597;SDS011;62772;48.646;8.906;2024-02-26T06:19:13;7.77;;;5.07;;
4597;SDS011;62772;48.646;8.906;2024-02-26T06:24:13;7.43;;;4.70;;
4597;SDS011;62772;48.646;8.906;2024-02-26T06:29:14;10.30;;;5.33;;
4597;SDS011;62772;48.646;8.906;2024-02-26T06:34:15;6.70;;;4.77;;
4597;SDS011;62772;48.646;8.906;2024-02-26T06:39:15;8.70;;;5.50;;
4597;SDS011;62772;48.646;8.906;2024-02-26T06:44:16;14.20;;;7.60;;
4597;SDS011;62772;48.646;8.906;2024-02-26T06:49:16;11.60;;;6.23;;
4597;SDS011;62772;48.646;8.906;2024-02-26T06:54:17;10.23;;;6.33;;
4597;SDS011;62772;48.646;8.906;2024-02-26T06:59:17;9.60;;;6.23;;
4597;SDS011;62772;48.646;8.906;2024-02-26T07:04:20;11.40;;;5.90;;
4597;SDS011;62772;48.646;8.906;2024-02-26T07:09:20;7.57;;;5.23;;
4597;SDS011;62772;48.646;8.906;2024-02-26T07:14:21;6.47;;;4.00;;
4597;SDS011;62772;48.646;8.906;2024-02-26T07:19:22;7.53;;;5.37;;
4597;SDS011;62772;48.646;8.906;2024-02-26T07:24:22;8.33;;;5.57;;
4597;SDS011;62772;48.646;8.906;2024-02-26T07:29:23;9.10;;;5.10;;
4597;SDS011;62772;48.646;8.906;2024-02-26T07:34:23;7.80;;;4.80;;
4597;SDS011;62772;48.646;8.906;2024-02-26T07:39:27;6.50;;;4.93;;
4597;SDS011;62772;48.646;8.906;2024-02-26T07:44:28;10.20;;;5.70;;
4597;SDS011;62772;48.646;8.906;2024-02-26T07:49:28;6.17;;;4.60;;
4597;SDS011;62772;48.646;8.906;2024-02-26T07:54:28;7.33;;;4.80;;
4597;SDS011;62772;48.646;8.906;2024-02-26T07:59:29;7.90;;;4.90;;
4597;SDS011;62772;48.646;8.906;2024-02-26T08:04:29;5.83;;;4.60;;
4597;SDS011;62772;48.646;8.906;2024-02-26T08:09:30;6.57;;;4.73;;
4597;SDS011;62772;48.646;8.906;2024-02-26T08:14:31;10.03;;;6.10;;
4597;SDS011;62772;48.646;8.906;2024-02-26T08:19:32;11.00;;;5.63;;
4597;SDS011;62772;48.646;8.906;2024-02-26T08:24:35;8.00;;;5.77;;
4597;SDS011;62772;48.646;8.906;2024-02-26T08:29:36;8.03;;;5.20;;
4597;SDS011;62772;48.646;8.906;2024-02-26T08:34:36;8.77;;;5.23;;
4597;SDS011;62772;48.646;8.906;2024-02-26T08:39:37;9.40;;;5.10;;
4597;SDS011;62772;48.646;8.906;2024-02-26T08:44:38;5.80;;;3.90;;
4597;SDS011;62772;48.646;8.906;2024-02-26T08:49:42;6.93;;;4.27;;
4597;SDS011;62772;48.646;8.906;2024-02-26T08:54:43;8.03;;;4.30;;
4597;SDS011;62772;48.646;8.906;2024-02-26T08:59:44;4.77;;;3.40;;
4597;SDS011;62772;48.646;8.906;2024-02-26T09:04:44;8.80;;;6.13;;
4597;SDS011;62772;48.646;8.906;2024-02-26T09:09:45;7.80;;;4.97;;
4597;SDS011;62772;48.646;8.906;2024-02-26T09:14:46;6.70;;;3.97;;
4597;SDS011;62772;48.646;8.906;2024-02-26T09:19:46;5.93;;;3.90;;
4597;SDS011;62772;48.646;8.906;2024-02-26T09:24:46;6.13;;;4.27;;
4597;SDS011;62772;48.646;8.906;2024-02-26T09:29:47;6.37;;;3.57;;
4597;SDS011;62772;48.646;8.906;2024-02-26T09:34:47;5.70;;;3.80;;
4597;SDS011;62772;48.646;8.906;2024-02-26T09:39:48;5.60;;;3.43;;
4597;SDS011;62772;48.646;8.906;2024-02-26T09:44:48;3.90;;;2.97;;
4597;SDS011;62772;48.646;8.906;2024-02-26T09:49:53;5.10;;;3.00;;
4597;SDS011;62772;48.646;8.906;2024-02-26T09:54:56;5.73;;;2.90;;
4597;SDS011;62772;48.646;8.906;2024-02-26T09:59:59;4.50;;;3.00;;
4597;SDS011;62772;48.646;8.906;2024-02-26T10:05:05;6.40;;;4.13;;
4597;SDS011;62772;48.646;8.906;2024-02-26T10:10:10;4.10;;;2.50;;
4597;SDS011;62772;48.646;8.906;2024-02-26T10:15:10;4.73;;;2.90;;
4597;SDS011;62772;48.646;8.906;2024-02-26T10:20:11;5.40;;;2.70;;
4597;SDS011;62772;48.646;8.906;2024-02-26T10:25:16;3.67;;;2.70;;
4597;SDS011;62772;48.646;8.906;2024-02-26T10:30:20;4.63;;;2.60;;
4597;SDS011;62772;48.646;8.906;2024-02-26T10:35:22;4.33;;;3.17;;
4597;SDS011;62772;48.646;8.906;2024-02-26T10:40:23;6.63;;;2.93;;
4597;SDS011;62772;48.646;8.906;2024-02-26T10:45:23;3.63;;;2.60;;
4597;SDS011;62772;48.646;8.906;2024-02-26T10:50:24;4.20;;;2.30;;
4597;SDS011;62772;48.646;8.906;2024-02-26T10:55:25;5.10;;;2.47;;
4597;SDS011;62772;48.646;8.906;2024-02-26T11:00:26;3.20;;;2.53;;
4597;SDS011;62772;48.646;8.906;2024-02-26T11:05:29;3.77;;;2.53;;
4597;SDS011;62772;48.646;8.906;2024-02-26T11:10:30;2.80;;;1.90;;
4597;SDS011;62772;48.646;8.906;2024-02-26T11:15:32;2.57;;;1.70;;
4597;SDS011;62772;48.646;8.906;2024-02-26T11:20:33;3.33;;;2.00;;
4597;SDS011;62772;48.646;8.906;2024-02-26T11:25:38;3.53;;;1.90;;
4597;SDS011;62772;48.646;8.906;2024-02-26T11:30:43;2.90;;;1.93;;
4597;SDS011;62772;48.646;8.906;2024-02-26T11:35:46;3.60;;;2.07;;
4597;SDS011;62772;48.646;8.906;2024-02-26T11:40:47;3.10;;;2.00;;
4597;SDS011;62772;48.646;8.906;2024-02-26T11:45:51;3.30;;;2.27;;
4597;SDS011;62772;48.646;8.906;2024-02-26T11:50:53;3.10;;;1.70;;
4597;SDS011;62772;48.646;8.906;2024-02-26T11:56:12;2.70;;;1.90;;
4597;SDS011;62772;48.646;8.906;2024-02-26T12:01:40;4.10;;;2.30;;
4597;SDS011;62772;48.646;8.906;2024-02-26T12:06:52;3.80;;;2.30;;
4597;SDS011;62772;48.646;8.906;2024-02-26T12:11:55;4.73;;;2.90;;
4597;SDS011;62772;48.646;8.906;2024-02-26T12:16:55;3.53;;;2.17;;
4597;SDS011;62772;48.646;8.906;2024-02-26T12:21:58;4.73;;;2.70;;
4597;SDS011;62772;48.646;8.906;2024-02-26T12:26:58;2.90;;;1.80;;
4597;SDS011;62772;48.646;8.906;2024-02-26T12:31:59;7.23;;;2.07;;
4597;SDS011;62772;48.646;8.906;2024-02-26T12:37:00;3.43;;;2.20;;
4597;SDS011;62772;48.646;8.906;2024-02-26T12:42:01;2.90;;;1.70;;
4597;SDS011;62772;48.646;8.906;2024-02-26T12:47:03;2.67;;;1.73;;
4597;SDS011;62772;48.646;8.906;2024-02-26T12:52:04;2.47;;;1.40;;
4597;SDS011;62772;48.646;8.906;2024-02-26T12:57:05;2.20;;;1.40;;
4597;SDS011;62772;48.646;8.906;2024-02-26T13:02:08;1.80;;;0.97;;
4597;SDS011;62772;48.646;8.906;2024-02-26T13:07:09;1.77;;;0.97;;
4597;SDS011;62772;48.646;8.906;2024-02-26T13:12:09;1.60;;;1.00;;
4597;SDS011;62772;48.646;8.906;2024-02-26T13:17:11;2.00;;;1.20;;
4597;SDS011;62772;48.646;8.906;2024-02-26T13:22:12;1.97;;;1.40;;
4597;SDS011;62772;48.646;8.906;2024-02-26T13:27:12;2.77;;;1.30;;
4597;SDS011;62772;48.646;8.906;2024-02-26T13:32:20;2.50;;;1.50;;
4597;SDS011;62772;48.646;8.906;2024-02-26T13:37:21;6.00;;;1.20;;
4597;SDS011;62772;48.646;8.906;2024-02-26T13:42:21;2.23;;;1.17;;
4597;SDS011;62772;48.646;8.906;2024-02-26T13:47:22;1.63;;;1.07;;
4597;SDS011;62772;48.646;8.906;2024-02-26T13:52:22;5.03;;;1.03;;
4597;SDS011;62772;48.646;8.906;2024-02-26T13:57:23;2.63;;;1.20;;
4597;SDS011;62772;48.646;8.906;2024-02-26T14:02:23;1.90;;;1.20;;
4597;SDS011;62772;48.646;8.906;2024-02-26T14:07:24;3.20;;;1.10;;
4597;SDS011;62772;48.646;8.906;2024-02-26T14:12:24;3.97;;;1.70;;
4597;SDS011;62772;48.646;8.906;2024-02-26T14:17:25;2.47;;;1.63;;
4597;SDS011;62772;48.646;8.906;2024-02-26T14:22:25;1.57;;;1.07;;
4597;SDS011;62772;48.646;8.906;2024-02-26T14:27:30;1.60;;;1.03;;
4597;SDS011;62772;48.646;8.906;2024-02-26T14:32:31;1.93;;;1.33;;
4597;SDS011;62772;48.646;8.906;2024-02-26T14:37:35;1.93;;;1.23;;
4597;SDS011;62772;48.646;8.906;2024-02-26T14:42:36;5.87;;;1.20;;
4597;SDS011;62772;48.646;8.906;2024-02-26T14:47:37;1.93;;;1.30;;
4597;SDS011;62772;48.646;8.906;2024-02-26T14:52:38;2.10;;;1.20;;
4597;SDS011;62772;48.646;8.906;2024-02-26T14:57:38;2.13;;;1.23;;
4597;SDS011;62772;48.646;8.906;2024-02-26T15:02:39;3.20;;;1.30;;
4597;SDS011;62772;48.646;8.906;2024-02-26T15:07:39;3.33;;;1.50;;
4597;SDS011;62772;48.646;8.906;2024-02-26T15:12:40;1.83;;;1.10;;
4597;SDS011;62772;48.646;8.906;2024-02-26T15:17:40;2.30;;;1.17;;
4597;SDS011;62772;48.646;8.906;2024-02-26T15:22:41;1.87;;;1.20;;
4597;SDS011;62772;48.646;8.906;2024-02-26T15:27:42;2.00;;;1.20;;
4597;SDS011;62772;48.646;8.906;2024-02-26T15:32:42;2.03;;;1.37;;
4597;SDS011;62772;48.646;8.906;2024-02-26T15:37:43;2.47;;;1.50;;
4597;SDS011;62772;48.646;8.906;2024-02-26T15:42:45;2.47;;;1.50;;
4597;SDS011;62772;48.646;8.906;2024-02-26T15:47:46;3.37;;;1.87;;
4597;SDS011;62772;48.646;8.906;2024-02-26T15:52:47;5.00;;;1.93;;
4597;SDS011;62772;48.646;8.906;2024-02-26T15:57:48;4.80;;;2.80;;
4597;SDS011;62772;48.646;8.906;2024-02-26T16:02:48;2.90;;;1.90;;
4597;SDS011;62772;48.646;8.906;2024-02-26T16:07:51;2.40;;;1.80;;
4597;SDS011;62772;48.646;8.906;2024-02-26T16:12:55;4.00;;;2.07;;
4597;SDS011;62772;48.646;8.906;2024-02-26T16:17:59;2.80;;;1.97;;
4597;SDS011;62772;48.646;8.906;2024-02-26T16:22:59;3.77;;;2.00;;
4597;SDS011;62772;48.646;8.906;2024-02-26T16:28:05;2.80;;;2.03;;
4597;SDS011;62772;48.646;8.906;2024-02-26T16:33:05;9.30;;;2.87;;
4597;SDS011;62772;48.646;8.906;2024-02-26T16:38:05;3.10;;;1.80;;
4597;SDS011;62772;48.646;8.906;2024-02-26T16:43:06;4.97;;;2.20;;
4597;SDS011;62772;48.646;8.906;2024-02-26T16:48:07;4.20;;;2.50;;
4597;SDS011;62772;48.646;8.906;2024-02-26T16:53:07;4.23;;;2.40;;
4597;SDS011;62772;48.646;8.906;2024-02-26T16:58:08;4.10;;;2.63;;
4597;SDS011;62772;48.646;8.906;2024-02-26T17:03:09;5.40;;;2.97;;
4597;SDS011;62772;48.646;8.906;2024-02-26T17:08:09;4.10;;;2.60;;
4597;SDS011;62772;48.646;8.906;2024-02-26T17:13:10;6.63;;;2.13;;
4597;SDS011;62772;48.646;8.906;2024-02-26T17:18:13;4.87;;;2.40;;
4597;SDS011;62772;48.646;8.906;2024-02-26T17:23:14;4.20;;;2.30;;
4597;SDS011;62772;48.646;8.906;2024-02-26T17:28:14;3.57;;;2.17;;
4597;SDS011;62772;48.646;8.906;2024-02-26T17:33:15;3.57;;;2.40;;
4597;SDS011;62772;48.646;8.906;2024-02-26T17:38:15;4.73;;;3.10;;
4597;SDS011;62772;48.646;8.906;2024-02-26T17:43:16;5.70;;;3.50;;
4597;SDS011;62772;48.646;8.906;2024-02-26T17:48:18;6.80;;;3.90;;
4597;SDS011;62772;48.646;8.906;2024-02-26T17:53:19;7.33;;;4.40;;
4597;SDS011;62772;48.646;8.906;2024-02-26T17:58:22;6.33;;;3.67;;
4597;SDS011;62772;48.646;8.906;2024-02-26T18:03:22;9.03;;;4.33;;
4597;SDS011;62772;48.646;8.906;2024-02-26T18:08:40;7.10;;;3.98;;
4597;SDS011;62772;48.646;8.906;2024-02-26T18:13:41;8.53;;;4.30;;
4597;SDS011;62772;48.646;8.906;2024-02-26T18:18:44;7.03;;;3.90;;
4597;SDS011;62772;48.646;8.906;2024-02-26T18:23:46;7.53;;;4.20;;
4597;SDS011;62772;48.646;8.906;2024-02-26T18:28:47;8.70;;;4.50;;
4597;SDS011;62772;48.646;8.906;2024-02-26T18:33:48;8.17;;;5.43;;
4597;SDS011;62772;48.646;8.906;2024-02-26T18:38:49;9.90;;;5.63;;
4597;SDS011;62772;48.646;8.906;2024-02-26T18:43:51;10.93;;;5.03;;
4597;SDS011;62772;48.646;8.906;2024-02-26T18:48:52;21.10;;;11.50;;
4597;SDS011;62772;48.646;8.906;2024-02-26T18:53:53;16.60;;;9.70;;
4597;SDS011;62772;48.646;8.906;2024-02-26T18:58:53;14.23;;;6.97;;
4597;SDS011;62772;48.646;8.906;2024-02-26T19:03:54;8.27;;;4.80;;
4597;SDS011;62772;48.646;8.906;2024-02-26T19:08:54;8.23;;;4.77;;
4597;SDS011;62772;48.646;8.906;2024-02-26T19:13:55;9.03;;;4.30;;
4597;SDS011;62772;48.646;8.906;2024-02-26T19:18:57;7.37;;;4.53;;
4597;SDS011;62772;48.646;8.906;2024-02-26T19:23:57;11.93;;;7.50;;
4597;SDS011;62772;48.646;8.906;2024-02-26T19:28:58;11.77;;;8.27;;
4597;SDS011;62772;48.646;8.906;2024-02-26T19:33:58;9.90;;;6.60;;
4597;SDS011;62772;48.646;8.906;2024-02-26T19:38:59;8.10;;;4.30;;
4597;SDS011;62772;48.646;8.906;2024-02-26T19:43:59;10.33;;;4.67;;
4597;SDS011;62772;48.646;8.906;2024-02-26T19:49:00;7.20;;;4.87;;
4597;SDS011;62772;48.646;8.906;2024-02-26T19:54:01;7.30;;;3.90;;
4597;SDS011;62772;48.646;8.906;2024-02-26T19:59:03;6.10;;;3.90;;
4597;SDS011;62772;48.646;8.906;2024-02-26T20:04:04;8.30;;;4.70;;
4597;SDS011;62772;48.646;8.906;2024-02-26T20:09:08;9.67;;;4.63;;
4597;SDS011;62772;48.646;8.906;2024-02-26T20:14:08;8.90;;;4.80;;
4597;SDS011;62772;48.646;8.906;2024-02-26T20:19:11;8.03;;;5.07;;
4597;SDS011;62772;48.646;8.906;2024-02-26T20:24:13;7.60;;;4.63;;
4597;SDS011;62772;48.646;8.906;2024-02-26T20:29:13;8.03;;;4.87;;
4597;SDS011;62772;48.646;8.906;2024-02-26T20:34:15;10.00;;;4.53;;
4597;SDS011;62772;48.646;8.906;2024-02-26T20:39:16;8.03;;;4.90;;
4597;SDS011;62772;48.646;8.906;2024-02-26T20:44:16;10.30;;;5.23;;
4597;SDS011;62772;48.646;8.906;2024-02-26T20:49:17;12.43;;;5.60;;
4597;SDS011;62772;48.646;8.906;2024-02-26T20:54:17;7.57;;;4.73;;
4597;SDS011;62772;48.646;8.906;2024-02-26T20:59:18;8.83;;;5.70;;
4597;SDS011;62772;48.646;8.906;2024-02-26T21:04:18;9.53;;;4.70;;
4597;SDS011;62772;48.646;8.906;2024-02-26T21:09:19;7.07;;;4.80;;
4597;SDS011;62772;48.646;8.906;2024-02-26T21:14:19;9.03;;;5.20;;
4597;SDS011;62772;48.646;8.906;2024-02-26T21:19:20;8.10;;;5.00;;
4597;SDS011;62772;48.646;8.906;2024-02-26T21:24:20;7.23;;;4.80;;
4597;SDS011;62772;48.646;8.906;2024-02-26T21:29:21;7.20;;;4.97;;
4597;SDS011;62772;48.646;8.906;2024-02-26T21:34:22;8.30;;;4.87;;
4597;SDS011;62772;48.646;8.906;2024-02-26T21:39:24;9.13;;;5.83;;
4597;SDS011;62772;48.646;8.906;2024-02-26T21:44:24;11.73;;;5.30;;
4597;SDS011;62772;48.646;8.906;2024-02-26T21:49:25;6.03;;;4.20;;
4597;SDS011;62772;48.646;8.906;2024-02-26T21:54:25;7.67;;;4.47;;
4597;SDS011;62772;48.646;8.906;2024-02-26T21:59:26;5.97;;;4.43;;
4597;SDS011;62772;48.646;8.906;2024-02-26T22:04:27;6.00;;;3.97;;
4597;SDS011;62772;48.646;8.906;2024-02-26T22:09:27;6.07;;;4.20;;
4597;SDS011;62772;48.646;8.906;2024-02-26T22:14:28;5.83;;;3.70;;
4597;SDS011;62772;48.646;8.906;2024-02-26T22:19:28;11.80;;;3.50;;
4597;SDS011;62772;48.646;8.906;2024-02-26T22:24:29;4.70;;;2.93;;
4597;SDS011;62772;48.646;8.906;2024-02-26T22:29:29;4.50;;;2.90;;
4597;SDS011;62772;48.646;8.906;2024-02-26T22:34:30;3.80;;;2.53;;
4597;SDS011;62772;48.646;8.906;2024-02-26T22:39:30;3.87;;;2.50;;
4597;SDS011;62772;48.646;8.906;2024-02-26T22:44:31;3.90;;;2.53;;
4597;SDS011;62772;48.646;8.906;2024-02-26T22:49:32;4.33;;;2.30;;
4597;SDS011;62772;48.646;8.906;2024-02-26T22:54:37;2.83;;;2.10;;
4597;SDS011;62772;48.646;8.906;2024-02-26T22:59:37;3.20;;;2.20;;
4597;SDS011;62772;48.646;8.906;2024-02-26T23:04:39;5.30;;;3.43;;
4597;SDS011;62772;48.646;8.906;2024-02-26T23:09:40;7.80;;;3.73;;
4597;SDS011;62772;48.646;8.906;2024-02-26T23:14:41;4.10;;;2.60;;
4597;SDS011;62772;48.646;8.906;2024-02-26T23:19:42;2.83;;;1.90;;
4597;SDS011;62772;48.646;8.906;2024-02-26T23:24:42;5.30;;;2.10;;
4597;SDS011;62772;48.646;8.906;2024-02-26T23:29:43;3.10;;;1.93;;
4597;SDS011;62772;48.646;8.906;2024-02-26T23:34:43;2.90;;;1.90;;
4597;SDS011;62772;48.646;8.906;2024-02-26T23:39:45;2.77;;;2.00;;
4597;SDS011;62772;48.646;8.906;2024-02-26T23:44:46;3.80;;;2.20;;
4597;SDS011;62772;48.646;8.906;2024-02-26T23:49:47;4.17;;;2.23;;
4597;SDS011;62772;48.646;8.906;2024-02-26T23:54:47;4.57;;;2.37;;
4597;SDS011;62772;48.646;8.906;2024-02-26T23:59:48;4.17;;;2.30;;
